sensor_id;sensor_type;location;lat;lon;timestamp;P1;durP1;ratioP1;P2;durP2;ratioP2
46643;SDS011;32371;51.032;5.816;2024-03-25T00:01:38;8.52;;;2.33;;
46643;SDS011;32371;51.032;5.816;2024-03-25T00:04:03;6.60;;;1.77;;
46643;SDS011;32371;51.032;5.816;2024-03-25T00:06:29;7.90;;;2.13;;
46643;SDS011;32371;51.032;5.816;2024-03-25T00:08:58;9.10;;;2.15;;
46643;SDS011;32371;51.032;5.816;2024-03-25T00:11:24;6.68;;;2.38;;
46643;SDS011;32371;51.032;5.816;2024-03-25T00:13:49;6.10;;;2.15;;
46643;SDS011;32371;51.032;5.816;2024-03-25T00:16:15;4.80;;;2.28;;
46643;SDS011;32371;51.032;5.816;2024-03-25T00:18:40;5.43;;;1.80;;
46643;SDS011;32371;51.032;5.816;2024-03-25T00:21:05;9.02;;;2.55;;
46643;SDS011;32371;51.032;5.816;2024-03-25T00:23:31;13.13;;;2.05;;
46643;SDS011;32371;51.032;5.816;2024-03-25T00:25:56;3.95;;;2.00;;
46643;SDS011;32371;51.032;5.816;2024-03-25T00:28:21;7.90;;;1.88;;
46643;SDS011;32371;51.032;5.816;2024-03-25T00:30:47;10.57;;;2.22;;
46643;SDS011;32371;51.032;5.816;2024-03-25T00:33:12;15.13;;;2.50;;
46643;SDS011;32371;51.032;5.816;2024-03-25T00:35:38;5.00;;;2.45;;
46643;SDS011;32371;51.032;5.816;2024-03-25T00:38:03;5.15;;;2.10;;
46643;SDS011;32371;51.032;5.816;2024-03-25T00:40:30;9.18;;;2.38;;
46643;SDS011;32371;51.032;5.816;2024-03-25T00:42:55;7.22;;;2.78;;
46643;SDS011;32371;51.032;5.816;2024-03-25T00:45:20;9.18;;;2.47;;
46643;SDS011;32371;51.032;5.816;2024-03-25T00:47:46;9.20;;;3.85;;
46643;SDS011;32371;51.032;5.816;2024-03-25T00:50:11;6.60;;;2.05;;
46643;SDS011;32371;51.032;5.816;2024-03-25T00:52:37;15.52;;;2.70;;
46643;SDS011;32371;51.032;5.816;2024-03-25T00:55:02;8.50;;;2.63;;
46643;SDS011;32371;51.032;5.816;2024-03-25T00:57:27;7.95;;;2.58;;
46643;SDS011;32371;51.032;5.816;2024-03-25T00:59:54;9.23;;;2.45;;
46643;SDS011;32371;51.032;5.816;2024-03-25T01:02:20;5.65;;;2.55;;
46643;SDS011;32371;51.032;5.816;2024-03-25T01:04:46;10.80;;;2.60;;
46643;SDS011;32371;51.032;5.816;2024-03-25T01:07:11;5.43;;;2.63;;
46643;SDS011;32371;51.032;5.816;2024-03-25T01:09:37;10.15;;;2.30;;
46643;SDS011;32371;51.032;5.816;2024-03-25T01:12:02;8.88;;;2.33;;
46643;SDS011;32371;51.032;5.816;2024-03-25T01:14:28;5.72;;;3.30;;
46643;SDS011;32371;51.032;5.816;2024-03-25T01:16:53;8.82;;;2.60;;
46643;SDS011;32371;51.032;5.816;2024-03-25T01:19:19;7.55;;;2.20;;
46643;SDS011;32371;51.032;5.816;2024-03-25T01:21:46;9.70;;;2.60;;
46643;SDS011;32371;51.032;5.816;2024-03-25T01:24:11;11.32;;;3.03;;
46643;SDS011;32371;51.032;5.816;2024-03-25T01:26:36;11.07;;;2.80;;
46643;SDS011;32371;51.032;5.816;2024-03-25T01:29:02;9.77;;;2.78;;
46643;SDS011;32371;51.032;5.816;2024-03-25T01:31:27;4.07;;;2.13;;
46643;SDS011;32371;51.032;5.816;2024-03-25T01:33:53;5.55;;;2.55;;
46643;SDS011;32371;51.032;5.816;2024-03-25T01:36:18;11.38;;;3.35;;
46643;SDS011;32371;51.032;5.816;2024-03-25T01:38:44;9.30;;;2.67;;
46643;SDS011;32371;51.032;5.816;2024-03-25T01:41:10;13.68;;;2.65;;
46643;SDS011;32371;51.032;5.816;2024-03-25T01:43:36;11.88;;;2.75;;
46643;SDS011;32371;51.032;5.816;2024-03-25T01:46:02;10.95;;;2.22;;
46643;SDS011;32371;51.032;5.816;2024-03-25T01:48:27;9.02;;;2.60;;
46643;SDS011;32371;51.032;5.816;2024-03-25T01:50:53;7.75;;;2.55;;
46643;SDS011;32371;51.032;5.816;2024-03-25T01:53:18;9.85;;;2.92;;
46643;SDS011;32371;51.032;5.816;2024-03-25T01:55:44;12.07;;;2.72;;
46643;SDS011;32371;51.032;5.816;2024-03-25T01:58:09;8.43;;;3.10;;
46643;SDS011;32371;51.032;5.816;2024-03-25T02:00:35;9.50;;;3.20;;
46643;SDS011;32371;51.032;5.816;2024-03-25T02:03:01;12.20;;;3.28;;
46643;SDS011;32371;51.032;5.816;2024-03-25T02:05:27;13.32;;;2.92;;
46643;SDS011;32371;51.032;5.816;2024-03-25T02:07:53;12.25;;;4.15;;
46643;SDS011;32371;51.032;5.816;2024-03-25T02:10:18;6.63;;;2.35;;
46643;SDS011;32371;51.032;5.816;2024-03-25T02:12:46;6.68;;;2.88;;
46643;SDS011;32371;51.032;5.816;2024-03-25T02:15:12;9.48;;;2.90;;
46643;SDS011;32371;51.032;5.816;2024-03-25T02:17:40;5.20;;;2.50;;
46643;SDS011;32371;51.032;5.816;2024-03-25T02:20:06;12.40;;;2.70;;
46643;SDS011;32371;51.032;5.816;2024-03-25T02:22:33;10.00;;;2.75;;
46643;SDS011;32371;51.032;5.816;2024-03-25T02:25:01;8.88;;;3.33;;
46643;SDS011;32371;51.032;5.816;2024-03-25T02:27:31;7.28;;;4.18;;
46643;SDS011;32371;51.032;5.816;2024-03-25T02:30:07;12.52;;;2.83;;
46643;SDS011;32371;51.032;5.816;2024-03-25T02:32:33;10.88;;;3.13;;
46643;SDS011;32371;51.032;5.816;2024-03-25T02:34:59;12.45;;;2.72;;
46643;SDS011;32371;51.032;5.816;2024-03-25T02:37:26;7.28;;;2.70;;
46643;SDS011;32371;51.032;5.816;2024-03-25T02:39:55;6.88;;;2.70;;
46643;SDS011;32371;51.032;5.816;2024-03-25T02:42:23;12.73;;;4.05;;
46643;SDS011;32371;51.032;5.816;2024-03-25T02:44:55;5.97;;;2.53;;
46643;SDS011;32371;51.032;5.816;2024-03-25T02:47:21;9.88;;;2.85;;
46643;SDS011;32371;51.032;5.816;2024-03-25T02:49:46;10.52;;;2.78;;
46643;SDS011;32371;51.032;5.816;2024-03-25T02:52:12;9.05;;;2.42;;
46643;SDS011;32371;51.032;5.816;2024-03-25T02:54:37;7.82;;;2.97;;
46643;SDS011;32371;51.032;5.816;2024-03-25T02:57:03;6.82;;;2.47;;
46643;SDS011;32371;51.032;5.816;2024-03-25T02:59:28;6.55;;;2.90;;
46643;SDS011;32371;51.032;5.816;2024-03-25T03:01:53;8.43;;;2.28;;
46643;SDS011;32371;51.032;5.816;2024-03-25T03:04:19;7.20;;;3.25;;
46643;SDS011;32371;51.032;5.816;2024-03-25T03:06:44;11.13;;;2.88;;
46643;SDS011;32371;51.032;5.816;2024-03-25T03:09:09;6.53;;;2.65;;
46643;SDS011;32371;51.032;5.816;2024-03-25T03:11:35;3.33;;;2.30;;
46643;SDS011;32371;51.032;5.816;2024-03-25T03:14:00;4.15;;;2.20;;
46643;SDS011;32371;51.032;5.816;2024-03-25T03:16:26;9.80;;;2.47;;
46643;SDS011;32371;51.032;5.816;2024-03-25T03:18:51;5.88;;;2.15;;
46643;SDS011;32371;51.032;5.816;2024-03-25T03:21:17;11.50;;;2.67;;
46643;SDS011;32371;51.032;5.816;2024-03-25T03:23:42;7.55;;;2.80;;
46643;SDS011;32371;51.032;5.816;2024-03-25T03:26:07;4.68;;;2.33;;
46643;SDS011;32371;51.032;5.816;2024-03-25T03:28:33;10.90;;;2.90;;
46643;SDS011;32371;51.032;5.816;2024-03-25T03:30:58;8.27;;;2.70;;
46643;SDS011;32371;51.032;5.816;2024-03-25T03:33:23;7.65;;;2.58;;
46643;SDS011;32371;51.032;5.816;2024-03-25T03:35:49;7.60;;;2.90;;
46643;SDS011;32371;51.032;5.816;2024-03-25T03:38:14;6.35;;;2.85;;
46643;SDS011;32371;51.032;5.816;2024-03-25T03:40:40;7.57;;;2.15;;
46643;SDS011;32371;51.032;5.816;2024-03-25T03:43:05;8.02;;;2.60;;
46643;SDS011;32371;51.032;5.816;2024-03-25T03:45:32;6.53;;;2.53;;
46643;SDS011;32371;51.032;5.816;2024-03-25T03:47:58;6.68;;;2.38;;
46643;SDS011;32371;51.032;5.816;2024-03-25T03:50:24;5.07;;;2.28;;
46643;SDS011;32371;51.032;5.816;2024-03-25T03:52:49;10.50;;;3.22;;
46643;SDS011;32371;51.032;5.816;2024-03-25T03:55:14;14.85;;;3.03;;
46643;SDS011;32371;51.032;5.816;2024-03-25T03:57:40;6.57;;;2.13;;
46643;SDS011;32371;51.032;5.816;2024-03-25T04:00:07;7.28;;;2.20;;
46643;SDS011;32371;51.032;5.816;2024-03-25T04:02:34;4.70;;;2.50;;
46643;SDS011;32371;51.032;5.816;2024-03-25T04:04:59;12.05;;;2.30;;
46643;SDS011;32371;51.032;5.816;2024-03-25T04:07:25;5.15;;;1.98;;
46643;SDS011;32371;51.032;5.816;2024-03-25T04:09:57;5.63;;;1.67;;
46643;SDS011;32371;51.032;5.816;2024-03-25T04:12:22;9.18;;;2.42;;
46643;SDS011;32371;51.032;5.816;2024-03-25T04:14:48;7.68;;;2.65;;
46643;SDS011;32371;51.032;5.816;2024-03-25T04:17:14;5.80;;;2.42;;
46643;SDS011;32371;51.032;5.816;2024-03-25T04:19:39;8.27;;;2.67;;
46643;SDS011;32371;51.032;5.816;2024-03-25T04:22:05;6.97;;;4.07;;
46643;SDS011;32371;51.032;5.816;2024-03-25T04:24:31;5.25;;;2.58;;
46643;SDS011;32371;51.032;5.816;2024-03-25T04:26:56;9.88;;;2.60;;
46643;SDS011;32371;51.032;5.816;2024-03-25T04:29:21;7.65;;;2.20;;
46643;SDS011;32371;51.032;5.816;2024-03-25T04:31:47;7.70;;;2.20;;
46643;SDS011;32371;51.032;5.816;2024-03-25T04:34:12;8.80;;;2.60;;
46643;SDS011;32371;51.032;5.816;2024-03-25T04:36:38;7.35;;;2.53;;
46643;SDS011;32371;51.032;5.816;2024-03-25T04:39:03;3.38;;;2.30;;
46643;SDS011;32371;51.032;5.816;2024-03-25T04:41:28;6.63;;;2.92;;
46643;SDS011;32371;51.032;5.816;2024-03-25T04:43:54;6.97;;;2.67;;
46643;SDS011;32371;51.032;5.816;2024-03-25T04:46:19;8.23;;;2.47;;
46643;SDS011;32371;51.032;5.816;2024-03-25T04:48:44;3.72;;;2.25;;
46643;SDS011;32371;51.032;5.816;2024-03-25T04:51:10;10.73;;;2.45;;
46643;SDS011;32371;51.032;5.816;2024-03-25T04:53:35;4.50;;;2.30;;
46643;SDS011;32371;51.032;5.816;2024-03-25T04:56:01;9.25;;;2.83;;
46643;SDS011;32371;51.032;5.816;2024-03-25T04:58:26;6.63;;;2.72;;
46643;SDS011;32371;51.032;5.816;2024-03-25T05:00:51;6.28;;;2.95;;
46643;SDS011;32371;51.032;5.816;2024-03-25T05:03:17;6.82;;;2.65;;
46643;SDS011;32371;51.032;5.816;2024-03-25T05:05:43;7.40;;;2.70;;
46643;SDS011;32371;51.032;5.816;2024-03-25T05:08:09;4.38;;;2.40;;
46643;SDS011;32371;51.032;5.816;2024-03-25T05:10:34;8.27;;;2.60;;
46643;SDS011;32371;51.032;5.816;2024-03-25T05:12:59;7.45;;;2.40;;
46643;SDS011;32371;51.032;5.816;2024-03-25T05:15:25;6.07;;;2.83;;
46643;SDS011;32371;51.032;5.816;2024-03-25T05:17:50;10.05;;;2.92;;
46643;SDS011;32371;51.032;5.816;2024-03-25T05:20:15;6.32;;;2.47;;
46643;SDS011;32371;51.032;5.816;2024-03-25T05:22:41;6.18;;;2.22;;
46643;SDS011;32371;51.032;5.816;2024-03-25T05:25:06;6.80;;;3.08;;
46643;SDS011;32371;51.032;5.816;2024-03-25T05:27:32;11.98;;;3.00;;
46643;SDS011;32371;51.032;5.816;2024-03-25T05:29:58;8.85;;;2.38;;
46643;SDS011;32371;51.032;5.816;2024-03-25T05:32:23;2.45;;;2.20;;
46643;SDS011;32371;51.032;5.816;2024-03-25T05:34:48;6.03;;;2.45;;
46643;SDS011;32371;51.032;5.816;2024-03-25T05:37:14;7.75;;;2.17;;
46643;SDS011;32371;51.032;5.816;2024-03-25T05:39:39;6.53;;;2.38;;
46643;SDS011;32371;51.032;5.816;2024-03-25T05:42:05;5.35;;;2.72;;
46643;SDS011;32371;51.032;5.816;2024-03-25T05:44:30;5.85;;;3.05;;
46643;SDS011;32371;51.032;5.816;2024-03-25T05:46:56;3.85;;;2.20;;
46643;SDS011;32371;51.032;5.816;2024-03-25T05:49:21;7.90;;;2.85;;
46643;SDS011;32371;51.032;5.816;2024-03-25T05:51:46;8.15;;;2.80;;
46643;SDS011;32371;51.032;5.816;2024-03-25T05:54:12;9.20;;;3.05;;
46643;SDS011;32371;51.032;5.816;2024-03-25T05:56:38;3.22;;;2.00;;
46643;SDS011;32371;51.032;5.816;2024-03-25T05:59:03;3.20;;;2.17;;
46643;SDS011;32371;51.032;5.816;2024-03-25T06:01:28;7.50;;;2.42;;
46643;SDS011;32371;51.032;5.816;2024-03-25T06:03:54;7.63;;;2.33;;
46643;SDS011;32371;51.032;5.816;2024-03-25T06:06:19;6.18;;;2.85;;
46643;SDS011;32371;51.032;5.816;2024-03-25T06:08:45;7.53;;;3.10;;
46643;SDS011;32371;51.032;5.816;2024-03-25T06:11:10;9.88;;;3.10;;
46643;SDS011;32371;51.032;5.816;2024-03-25T06:13:35;7.78;;;3.58;;
46643;SDS011;32371;51.032;5.816;2024-03-25T06:16:01;8.23;;;4.43;;
46643;SDS011;32371;51.032;5.816;2024-03-25T06:18:26;13.15;;;4.25;;
46643;SDS011;32371;51.032;5.816;2024-03-25T06:20:52;13.80;;;5.03;;
46643;SDS011;32371;51.032;5.816;2024-03-25T06:23:24;12.13;;;3.75;;
46643;SDS011;32371;51.032;5.816;2024-03-25T06:25:53;18.30;;;4.13;;
46643;SDS011;32371;51.032;5.816;2024-03-25T06:28:20;12.27;;;4.32;;
46643;SDS011;32371;51.032;5.816;2024-03-25T06:30:46;10.50;;;4.30;;
46643;SDS011;32371;51.032;5.816;2024-03-25T06:33:30;11.05;;;4.22;;
46643;SDS011;32371;51.032;5.816;2024-03-25T06:36:15;10.40;;;4.80;;
46643;SDS011;32371;51.032;5.816;2024-03-25T06:38:40;14.85;;;4.55;;
46643;SDS011;32371;51.032;5.816;2024-03-25T06:41:06;10.73;;;4.47;;
46643;SDS011;32371;51.032;5.816;2024-03-25T06:43:31;12.50;;;4.05;;
46643;SDS011;32371;51.032;5.816;2024-03-25T06:45:57;7.25;;;3.75;;
46643;SDS011;32371;51.032;5.816;2024-03-25T06:48:22;11.95;;;4.10;;
46643;SDS011;32371;51.032;5.816;2024-03-25T06:50:54;15.65;;;5.00;;
46643;SDS011;32371;51.032;5.816;2024-03-25T06:53:20;7.97;;;4.15;;
46643;SDS011;32371;51.032;5.816;2024-03-25T06:58:21;15.35;;;5.03;;
46643;SDS011;32371;51.032;5.816;2024-03-25T07:00:51;11.07;;;4.38;;
46643;SDS011;32371;51.032;5.816;2024-03-25T07:03:17;10.98;;;3.75;;
46643;SDS011;32371;51.032;5.816;2024-03-25T07:05:45;14.50;;;4.90;;
46643;SDS011;32371;51.032;5.816;2024-03-25T07:08:11;14.70;;;4.55;;
46643;SDS011;32371;51.032;5.816;2024-03-25T07:10:37;14.52;;;4.75;;
46643;SDS011;32371;51.032;5.816;2024-03-25T07:13:02;8.15;;;4.07;;
46643;SDS011;32371;51.032;5.816;2024-03-25T07:15:28;14.68;;;5.35;;
46643;SDS011;32371;51.032;5.816;2024-03-25T07:17:54;9.85;;;4.25;;
46643;SDS011;32371;51.032;5.816;2024-03-25T07:20:19;12.10;;;4.35;;
46643;SDS011;32371;51.032;5.816;2024-03-25T07:22:46;15.07;;;5.40;;
46643;SDS011;32371;51.032;5.816;2024-03-25T07:25:12;17.73;;;5.15;;
46643;SDS011;32371;51.032;5.816;2024-03-25T07:27:37;13.68;;;4.97;;
46643;SDS011;32371;51.032;5.816;2024-03-25T07:30:03;19.17;;;5.00;;
46643;SDS011;32371;51.032;5.816;2024-03-25T07:32:31;13.15;;;5.20;;
46643;SDS011;32371;51.032;5.816;2024-03-25T07:34:57;13.32;;;5.15;;
46643;SDS011;32371;51.032;5.816;2024-03-25T07:37:22;16.40;;;5.50;;
46643;SDS011;32371;51.032;5.816;2024-03-25T07:39:47;13.82;;;4.80;;
46643;SDS011;32371;51.032;5.816;2024-03-25T07:42:13;11.68;;;4.93;;
46643;SDS011;32371;51.032;5.816;2024-03-25T07:44:39;12.18;;;5.18;;
46643;SDS011;32371;51.032;5.816;2024-03-25T07:47:04;12.63;;;5.22;;
46643;SDS011;32371;51.032;5.816;2024-03-25T07:49:30;16.35;;;5.97;;
46643;SDS011;32371;51.032;5.816;2024-03-25T07:51:56;14.75;;;5.40;;
46643;SDS011;32371;51.032;5.816;2024-03-25T07:54:21;13.82;;;5.88;;
46643;SDS011;32371;51.032;5.816;2024-03-25T07:56:47;14.90;;;6.03;;
46643;SDS011;32371;51.032;5.816;2024-03-25T07:59:12;14.43;;;5.15;;
46643;SDS011;32371;51.032;5.816;2024-03-25T08:01:38;13.73;;;4.97;;
46643;SDS011;32371;51.032;5.816;2024-03-25T08:04:03;12.38;;;4.47;;
46643;SDS011;32371;51.032;5.816;2024-03-25T08:06:28;13.45;;;4.65;;
46643;SDS011;32371;51.032;5.816;2024-03-25T08:08:54;12.75;;;4.85;;
46643;SDS011;32371;51.032;5.816;2024-03-25T08:11:19;14.55;;;4.78;;
46643;SDS011;32371;51.032;5.816;2024-03-25T08:13:45;7.65;;;3.70;;
46643;SDS011;32371;51.032;5.816;2024-03-25T08:16:11;14.77;;;3.95;;
46643;SDS011;32371;51.032;5.816;2024-03-25T08:18:36;9.80;;;3.65;;
46643;SDS011;32371;51.032;5.816;2024-03-25T08:21:02;8.68;;;3.85;;
46643;SDS011;32371;51.032;5.816;2024-03-25T08:23:27;11.18;;;4.68;;
46643;SDS011;32371;51.032;5.816;2024-03-25T08:25:52;8.35;;;3.55;;
46643;SDS011;32371;51.032;5.816;2024-03-25T08:28:18;8.70;;;4.45;;
46643;SDS011;32371;51.032;5.816;2024-03-25T08:30:43;8.40;;;4.05;;
46643;SDS011;32371;51.032;5.816;2024-03-25T08:33:08;9.27;;;3.88;;
46643;SDS011;32371;51.032;5.816;2024-03-25T08:35:34;9.25;;;3.90;;
46643;SDS011;32371;51.032;5.816;2024-03-25T08:37:59;8.50;;;3.92;;
46643;SDS011;32371;51.032;5.816;2024-03-25T08:40:24;10.70;;;3.72;;
46643;SDS011;32371;51.032;5.816;2024-03-25T08:42:50;9.27;;;4.43;;
46643;SDS011;32371;51.032;5.816;2024-03-25T08:45:15;8.48;;;2.97;;
46643;SDS011;32371;51.032;5.816;2024-03-25T08:47:40;8.63;;;3.70;;
46643;SDS011;32371;51.032;5.816;2024-03-25T08:50:07;7.05;;;3.42;;
46643;SDS011;32371;51.032;5.816;2024-03-25T08:52:33;8.43;;;3.67;;
46643;SDS011;32371;51.032;5.816;2024-03-25T08:54:58;13.82;;;4.28;;
46643;SDS011;32371;51.032;5.816;2024-03-25T08:57:24;7.18;;;2.97;;
46643;SDS011;32371;51.032;5.816;2024-03-25T08:59:49;7.63;;;3.30;;
46643;SDS011;32371;51.032;5.816;2024-03-25T09:02:14;15.20;;;4.63;;
46643;SDS011;32371;51.032;5.816;2024-03-25T09:04:39;10.68;;;3.80;;
46643;SDS011;32371;51.032;5.816;2024-03-25T09:07:05;12.93;;;4.93;;
46643;SDS011;32371;51.032;5.816;2024-03-25T09:09:30;7.93;;;3.75;;
46643;SDS011;32371;51.032;5.816;2024-03-25T09:12:14;12.18;;;4.10;;
46643;SDS011;32371;51.032;5.816;2024-03-25T09:14:39;9.25;;;3.95;;
46643;SDS011;32371;51.032;5.816;2024-03-25T09:17:05;8.60;;;3.72;;
46643;SDS011;32371;51.032;5.816;2024-03-25T09:19:30;9.13;;;3.38;;
46643;SDS011;32371;51.032;5.816;2024-03-25T09:21:55;10.57;;;4.10;;
46643;SDS011;32371;51.032;5.816;2024-03-25T09:24:21;9.60;;;3.10;;
46643;SDS011;32371;51.032;5.816;2024-03-25T09:26:46;7.15;;;3.50;;
46643;SDS011;32371;51.032;5.816;2024-03-25T09:29:14;8.77;;;3.67;;
46643;SDS011;32371;51.032;5.816;2024-03-25T09:31:40;8.70;;;3.67;;
46643;SDS011;32371;51.032;5.816;2024-03-25T09:34:05;10.80;;;4.05;;
46643;SDS011;32371;51.032;5.816;2024-03-25T09:36:31;6.72;;;3.22;;
46643;SDS011;32371;51.032;5.816;2024-03-25T09:38:56;7.95;;;3.13;;
46643;SDS011;32371;51.032;5.816;2024-03-25T09:41:22;10.15;;;4.03;;
46643;SDS011;32371;51.032;5.816;2024-03-25T09:43:48;7.65;;;3.90;;
46643;SDS011;32371;51.032;5.816;2024-03-25T09:46:16;10.25;;;3.95;;
46643;SDS011;32371;51.032;5.816;2024-03-25T09:48:42;5.75;;;3.47;;
46643;SDS011;32371;51.032;5.816;2024-03-25T09:51:08;12.77;;;3.80;;
46643;SDS011;32371;51.032;5.816;2024-03-25T09:53:34;9.65;;;3.70;;
46643;SDS011;32371;51.032;5.816;2024-03-25T09:56:00;6.45;;;3.50;;
46643;SDS011;32371;51.032;5.816;2024-03-25T09:58:25;6.20;;;3.28;;
46643;SDS011;32371;51.032;5.816;2024-03-25T10:00:51;4.43;;;1.95;;
46643;SDS011;32371;51.032;5.816;2024-03-25T10:03:17;7.25;;;2.58;;
46643;SDS011;32371;51.032;5.816;2024-03-25T10:05:42;4.70;;;2.03;;
46643;SDS011;32371;51.032;5.816;2024-03-25T10:08:07;5.82;;;1.95;;
46643;SDS011;32371;51.032;5.816;2024-03-25T10:10:36;6.03;;;1.88;;
46643;SDS011;32371;51.032;5.816;2024-03-25T10:13:05;8.05;;;2.22;;
46643;SDS011;32371;51.032;5.816;2024-03-25T10:15:30;3.10;;;1.30;;
46643;SDS011;32371;51.032;5.816;2024-03-25T10:17:57;6.53;;;2.00;;
46643;SDS011;32371;51.032;5.816;2024-03-25T10:20:22;4.40;;;2.22;;
46643;SDS011;32371;51.032;5.816;2024-03-25T10:22:49;3.20;;;1.42;;
46643;SDS011;32371;51.032;5.816;2024-03-25T10:25:27;3.30;;;1.25;;
46643;SDS011;32371;51.032;5.816;2024-03-25T10:27:53;4.95;;;1.52;;
46643;SDS011;32371;51.032;5.816;2024-03-25T10:30:19;4.28;;;1.60;;
46643;SDS011;32371;51.032;5.816;2024-03-25T10:32:45;4.45;;;1.90;;
46643;SDS011;32371;51.032;5.816;2024-03-25T10:35:10;7.90;;;1.80;;
46643;SDS011;32371;51.032;5.816;2024-03-25T10:37:36;5.43;;;1.65;;
46643;SDS011;32371;51.032;5.816;2024-03-25T10:40:01;3.20;;;1.60;;
46643;SDS011;32371;51.032;5.816;2024-03-25T10:42:29;5.45;;;1.45;;
46643;SDS011;32371;51.032;5.816;2024-03-25T10:44:55;2.95;;;1.20;;
46643;SDS011;32371;51.032;5.816;2024-03-25T10:47:24;5.07;;;1.27;;
46643;SDS011;32371;51.032;5.816;2024-03-25T10:49:57;3.00;;;1.67;;
46643;SDS011;32371;51.032;5.816;2024-03-25T10:52:23;3.90;;;1.45;;
46643;SDS011;32371;51.032;5.816;2024-03-25T10:54:49;4.28;;;1.60;;
46643;SDS011;32371;51.032;5.816;2024-03-25T10:57:15;3.90;;;1.60;;
46643;SDS011;32371;51.032;5.816;2024-03-25T10:59:44;3.47;;;1.10;;
46643;SDS011;32371;51.032;5.816;2024-03-25T11:02:11;2.80;;;1.38;;
46643;SDS011;32371;51.032;5.816;2024-03-25T11:04:37;4.75;;;1.10;;
46643;SDS011;32371;51.032;5.816;2024-03-25T11:09:38;2.05;;;0.98;;
46643;SDS011;32371;51.032;5.816;2024-03-25T11:12:03;3.55;;;1.55;;
46643;SDS011;32371;51.032;5.816;2024-03-25T11:14:29;3.83;;;1.60;;
46643;SDS011;32371;51.032;5.816;2024-03-25T11:16:57;2.70;;;1.63;;
46643;SDS011;32371;51.032;5.816;2024-03-25T11:19:25;4.60;;;1.50;;
46643;SDS011;32371;51.032;5.816;2024-03-25T11:21:54;1.85;;;1.60;;
46643;SDS011;32371;51.032;5.816;2024-03-25T11:24:29;4.22;;;1.60;;
46643;SDS011;32371;51.032;5.816;2024-03-25T11:26:55;3.20;;;1.63;;
46643;SDS011;32371;51.032;5.816;2024-03-25T11:29:20;2.75;;;1.33;;
46643;SDS011;32371;51.032;5.816;2024-03-25T11:31:46;4.25;;;2.10;;
46643;SDS011;32371;51.032;5.816;2024-03-25T11:34:14;5.43;;;1.98;;
46643;SDS011;32371;51.032;5.816;2024-03-25T11:36:39;7.28;;;1.63;;
46643;SDS011;32371;51.032;5.816;2024-03-25T11:39:04;4.65;;;1.63;;
46643;SDS011;32371;51.032;5.816;2024-03-25T11:41:34;4.10;;;1.40;;
46643;SDS011;32371;51.032;5.816;2024-03-25T11:44:00;4.03;;;1.75;;
46643;SDS011;32371;51.032;5.816;2024-03-25T11:46:26;9.50;;;1.92;;
46643;SDS011;32371;51.032;5.816;2024-03-25T11:48:52;4.38;;;1.65;;
46643;SDS011;32371;51.032;5.816;2024-03-25T11:51:18;2.55;;;1.02;;
46643;SDS011;32371;51.032;5.816;2024-03-25T11:53:44;2.90;;;1.58;;
46643;SDS011;32371;51.032;5.816;2024-03-25T11:56:10;5.50;;;2.13;;
46643;SDS011;32371;51.032;5.816;2024-03-25T11:58:36;6.38;;;1.55;;
46643;SDS011;32371;51.032;5.816;2024-03-25T12:01:02;6.13;;;1.50;;
46643;SDS011;32371;51.032;5.816;2024-03-25T12:03:27;3.00;;;1.30;;
46643;SDS011;32371;51.032;5.816;2024-03-25T12:05:52;5.78;;;1.30;;
46643;SDS011;32371;51.032;5.816;2024-03-25T12:08:18;4.82;;;1.45;;
46643;SDS011;32371;51.032;5.816;2024-03-25T12:10:43;3.42;;;1.73;;
46643;SDS011;32371;51.032;5.816;2024-03-25T12:13:27;4.30;;;1.77;;
46643;SDS011;32371;51.032;5.816;2024-03-25T12:15:53;2.90;;;1.50;;
46643;SDS011;32371;51.032;5.816;2024-03-25T12:18:18;3.45;;;1.35;;
46643;SDS011;32371;51.032;5.816;2024-03-25T12:20:47;4.38;;;1.10;;
46643;SDS011;32371;51.032;5.816;2024-03-25T12:23:13;5.25;;;1.25;;
46643;SDS011;32371;51.032;5.816;2024-03-25T12:25:38;3.15;;;1.08;;
46643;SDS011;32371;51.032;5.816;2024-03-25T12:28:10;3.70;;;1.20;;
46643;SDS011;32371;51.032;5.816;2024-03-25T12:30:48;1.60;;;1.00;;
46643;SDS011;32371;51.032;5.816;2024-03-25T12:33:14;2.97;;;1.02;;
46643;SDS011;32371;51.032;5.816;2024-03-25T12:35:40;3.28;;;1.20;;
46643;SDS011;32371;51.032;5.816;2024-03-25T12:38:06;3.83;;;1.30;;
46643;SDS011;32371;51.032;5.816;2024-03-25T12:40:31;1.48;;;0.93;;
46643;SDS011;32371;51.032;5.816;2024-03-25T12:42:56;3.50;;;1.00;;
46643;SDS011;32371;51.032;5.816;2024-03-25T12:45:22;5.28;;;1.85;;
46643;SDS011;32371;51.032;5.816;2024-03-25T12:47:48;5.20;;;1.20;;
46643;SDS011;32371;51.032;5.816;2024-03-25T12:50:15;2.67;;;0.90;;
46643;SDS011;32371;51.032;5.816;2024-03-25T12:52:40;1.05;;;0.70;;
46643;SDS011;32371;51.032;5.816;2024-03-25T12:55:05;4.60;;;1.23;;
46643;SDS011;32371;51.032;5.816;2024-03-25T12:57:31;1.50;;;0.57;;
46643;SDS011;32371;51.032;5.816;2024-03-25T12:59:56;2.15;;;0.75;;
46643;SDS011;32371;51.032;5.816;2024-03-25T13:02:22;2.92;;;0.80;;
46643;SDS011;32371;51.032;5.816;2024-03-25T13:04:47;1.40;;;0.70;;
46643;SDS011;32371;51.032;5.816;2024-03-25T13:07:12;0.90;;;0.77;;
46643;SDS011;32371;51.032;5.816;2024-03-25T13:09:38;1.92;;;0.93;;
46643;SDS011;32371;51.032;5.816;2024-03-25T13:12:03;0.68;;;0.52;;
46643;SDS011;32371;51.032;5.816;2024-03-25T13:14:29;2.63;;;0.80;;
46643;SDS011;32371;51.032;5.816;2024-03-25T13:16:54;2.03;;;0.80;;
46643;SDS011;32371;51.032;5.816;2024-03-25T13:19:20;4.90;;;0.93;;
46643;SDS011;32371;51.032;5.816;2024-03-25T13:21:45;5.68;;;1.20;;
46643;SDS011;32371;51.032;5.816;2024-03-25T13:24:10;2.38;;;0.95;;
46643;SDS011;32371;51.032;5.816;2024-03-25T13:26:36;1.48;;;0.80;;
46643;SDS011;32371;51.032;5.816;2024-03-25T13:29:01;3.45;;;0.95;;
46643;SDS011;32371;51.032;5.816;2024-03-25T13:31:27;2.03;;;1.10;;
46643;SDS011;32371;51.032;5.816;2024-03-25T13:33:52;1.33;;;0.65;;
46643;SDS011;32371;51.032;5.816;2024-03-25T13:36:18;4.28;;;0.65;;
46643;SDS011;32371;51.032;5.816;2024-03-25T13:38:43;2.42;;;1.38;;
46643;SDS011;32371;51.032;5.816;2024-03-25T13:41:09;2.55;;;0.77;;
46643;SDS011;32371;51.032;5.816;2024-03-25T13:43:35;1.73;;;0.90;;
46643;SDS011;32371;51.032;5.816;2024-03-25T13:46:00;3.05;;;0.63;;
46643;SDS011;32371;51.032;5.816;2024-03-25T13:48:25;1.92;;;0.70;;
46643;SDS011;32371;51.032;5.816;2024-03-25T13:50:54;0.63;;;0.50;;
46643;SDS011;32371;51.032;5.816;2024-03-25T13:53:19;3.47;;;0.80;;
46643;SDS011;32371;51.032;5.816;2024-03-25T13:55:45;2.47;;;0.80;;
46643;SDS011;32371;51.032;5.816;2024-03-25T13:58:10;2.67;;;0.88;;
46643;SDS011;32371;51.032;5.816;2024-03-25T14:00:36;3.13;;;0.70;;
46643;SDS011;32371;51.032;5.816;2024-03-25T14:03:01;3.10;;;1.02;;
46643;SDS011;32371;51.032;5.816;2024-03-25T14:05:27;4.00;;;1.02;;
46643;SDS011;32371;51.032;5.816;2024-03-25T14:07:52;4.25;;;0.90;;
46643;SDS011;32371;51.032;5.816;2024-03-25T14:10:17;1.48;;;0.90;;
46643;SDS011;32371;51.032;5.816;2024-03-25T14:12:43;1.48;;;0.88;;
46643;SDS011;32371;51.032;5.816;2024-03-25T14:15:08;2.90;;;0.73;;
46643;SDS011;32371;51.032;5.816;2024-03-25T14:17:34;2.08;;;0.82;;
46643;SDS011;32371;51.032;5.816;2024-03-25T14:19:59;6.13;;;1.25;;
46643;SDS011;32371;51.032;5.816;2024-03-25T14:22:25;4.85;;;1.30;;
46643;SDS011;32371;51.032;5.816;2024-03-25T14:24:50;4.05;;;0.93;;
46643;SDS011;32371;51.032;5.816;2024-03-25T14:27:21;4.05;;;1.45;;
46643;SDS011;32371;51.032;5.816;2024-03-25T14:29:47;2.33;;;0.90;;
46643;SDS011;32371;51.032;5.816;2024-03-25T14:32:12;3.72;;;1.20;;
46643;SDS011;32371;51.032;5.816;2024-03-25T14:34:37;1.27;;;1.10;;
46643;SDS011;32371;51.032;5.816;2024-03-25T14:37:03;4.70;;;1.75;;
46643;SDS011;32371;51.032;5.816;2024-03-25T14:39:28;5.72;;;1.13;;
46643;SDS011;32371;51.032;5.816;2024-03-25T14:41:54;3.72;;;1.30;;
46643;SDS011;32371;51.032;5.816;2024-03-25T14:44:19;3.67;;;1.10;;